sensor_id;sensor_type;location;lat;lon;timestamp;temperature;humidity
1021;DHT22;499;42.648;23.270;2022-07-01T00:00:37;19.60;69.80
1021;DHT22;499;42.648;23.270;2022-07-01T00:03:04;19.70;68.60
1021;DHT22;499;42.648;23.270;2022-07-01T00:05:31;19.80;68.10
1021;DHT22;499;42.648;23.270;2022-07-01T00:08:00;19.80;67.00
1021;DHT22;499;42.648;23.270;2022-07-01T00:10:27;19.80;66.70
1021;DHT22;499;42.648;23.270;2022-07-01T00:12:54;19.70;68.00
1021;DHT22;499;42.648;23.270;2022-07-01T00:15:21;19.80;65.60
1021;DHT22;499;42.648;23.270;2022-07-01T00:17:48;19.80;64.70
1021;DHT22;499;42.648;23.270;2022-07-01T00:20:16;19.80;64.20
1021;DHT22;499;42.648;23.270;2022-07-01T00:22:43;19.90;65.10
1021;DHT22;499;42.648;23.270;2022-07-01T00:25:12;20.00;63.30
1021;DHT22;499;42.648;23.270;2022-07-01T00:27:40;19.90;60.80
1021;DHT22;499;42.648;23.270;2022-07-01T00:30:09;19.70;63.00
1021;DHT22;499;42.648;23.270;2022-07-01T00:32:36;19.70;63.00
1021;DHT22;499;42.648;23.270;2022-07-01T00:35:04;19.70;65.20
1021;DHT22;499;42.648;23.270;2022-07-01T00:37:31;19.60;66.90
1021;DHT22;499;42.648;23.270;2022-07-01T00:39:58;19.60;67.20
1021;DHT22;499;42.648;23.270;2022-07-01T00:42:26;19.50;67.80
1021;DHT22;499;42.648;23.270;2022-07-01T00:44:54;19.40;66.30
1021;DHT22;499;42.648;23.270;2022-07-01T00:47:21;19.30;70.00
1021;DHT22;499;42.648;23.270;2022-07-01T00:49:48;19.20;73.40
1021;DHT22;499;42.648;23.270;2022-07-01T00:52:15;19.20;74.30
1021;DHT22;499;42.648;23.270;2022-07-01T00:54:43;19.20;75.20
1021;DHT22;499;42.648;23.270;2022-07-01T00:57:11;19.30;72.80
1021;DHT22;499;42.648;23.270;2022-07-01T00:59:40;19.30;70.70
1021;DHT22;499;42.648;23.270;2022-07-01T01:02:08;19.10;70.80
1021;DHT22;499;42.648;23.270;2022-07-01T01:04:36;19.10;73.60
1021;DHT22;499;42.648;23.270;2022-07-01T01:07:03;19.20;70.50
1021;DHT22;499;42.648;23.270;2022-07-01T01:09:31;19.20;70.20
1021;DHT22;499;42.648;23.270;2022-07-01T01:11:59;19.20;69.20
1021;DHT22;499;42.648;23.270;2022-07-01T01:14:27;19.20;68.20
1021;DHT22;499;42.648;23.270;2022-07-01T01:16:55;19.10;71.70
1021;DHT22;499;42.648;23.270;2022-07-01T01:19:23;19.00;72.20
1021;DHT22;499;42.648;23.270;2022-07-01T01:21:51;18.90;74.90
1021;DHT22;499;42.648;23.270;2022-07-01T01:24:18;19.10;74.10
1021;DHT22;499;42.648;23.270;2022-07-01T01:26:45;19.10;71.10
1021;DHT22;499;42.648;23.270;2022-07-01T01:29:12;19.00;72.20
1021;DHT22;499;42.648;23.270;2022-07-01T01:31:40;19.10;72.30
1021;DHT22;499;42.648;23.270;2022-07-01T01:34:07;18.90;71.60
1021;DHT22;499;42.648;23.270;2022-07-01T01:36:34;18.80;72.00
1021;DHT22;499;42.648;23.270;2022-07-01T01:39:02;18.80;73.20
1021;DHT22;499;42.648;23.270;2022-07-01T01:41:33;18.70;76.00
1021;DHT22;499;42.648;23.270;2022-07-01T01:44:00;18.70;77.90
1021;DHT22;499;42.648;23.270;2022-07-01T01:46:27;18.60;79.60
1021;DHT22;499;42.648;23.270;2022-07-01T01:48:54;18.80;77.50
1021;DHT22;499;42.648;23.270;2022-07-01T01:51:21;18.70;75.70
1021;DHT22;499;42.648;23.270;2022-07-01T01:53:49;18.70;75.50
1021;DHT22;499;42.648;23.270;2022-07-01T01:56:17;18.60;76.70
1021;DHT22;499;42.648;23.270;2022-07-01T01:58:44;18.60;78.40
1021;DHT22;499;42.648;23.270;2022-07-01T02:01:12;18.70;76.80
1021;DHT22;499;42.648;23.270;2022-07-01T02:03:41;18.60;76.70
1021;DHT22;499;42.648;23.270;2022-07-01T02:06:10;18.60;77.00
1021;DHT22;499;42.648;23.270;2022-07-01T02:08:37;18.60;76.70
1021;DHT22;499;42.648;23.270;2022-07-01T02:11:04;18.50;76.60
1021;DHT22;499;42.648;23.270;2022-07-01T02:13:34;18.60;77.20
1021;DHT22;499;42.648;23.270;2022-07-01T02:16:01;18.60;79.60
1021;DHT22;499;42.648;23.270;2022-07-01T02:18:28;18.50;79.00
1021;DHT22;499;42.648;23.270;2022-07-01T02:20:55;18.30;80.70
1021;DHT22;499;42.648;23.270;2022-07-01T02:23:23;18.40;80.70
1021;DHT22;499;42.648;23.270;2022-07-01T02:25:50;18.40;82.40
1021;DHT22;499;42.648;23.270;2022-07-01T02:28:17;18.40;81.20
1021;DHT22;499;42.648;23.270;2022-07-01T02:30:45;18.40;84.60
1021;DHT22;499;42.648;23.270;2022-07-01T02:33:12;18.30;84.00
1021;DHT22;499;42.648;23.270;2022-07-01T02:35:41;18.30;83.50
1021;DHT22;499;42.648;23.270;2022-07-01T02:38:08;18.40;81.30
1021;DHT22;499;42.648;23.270;2022-07-01T02:40:35;18.30;83.50
1021;DHT22;499;42.648;23.270;2022-07-01T02:43:05;18.30;83.70
1021;DHT22;499;42.648;23.270;2022-07-01T02:45:32;18.30;85.80
1021;DHT22;499;42.648;23.270;2022-07-01T02:48:01;18.40;82.40
1021;DHT22;499;42.648;23.270;2022-07-01T02:50:28;18.40;81.30
1021;DHT22;499;42.648;23.270;2022-07-01T02:52:55;18.50;78.90
1021;DHT22;499;42.648;23.270;2022-07-01T02:55:23;18.50;78.10
1021;DHT22;499;42.648;23.270;2022-07-01T02:57:50;18.40;77.70
1021;DHT22;499;42.648;23.270;2022-07-01T03:00:19;18.30;80.30
1021;DHT22;499;42.648;23.270;2022-07-01T03:02:46;18.30;82.40
1021;DHT22;499;42.648;23.270;2022-07-01T03:05:15;18.40;80.80
1021;DHT22;499;42.648;23.270;2022-07-01T03:07:42;18.50;79.60
1021;DHT22;499;42.648;23.270;2022-07-01T03:10:10;18.60;78.30
1021;DHT22;499;42.648;23.270;2022-07-01T03:12:37;18.70;75.30
1021;DHT22;499;42.648;23.270;2022-07-01T03:15:08;18.60;76.50
1021;DHT22;499;42.648;23.270;2022-07-01T03:17:36;18.70;76.80
1021;DHT22;499;42.648;23.270;2022-07-01T03:20:05;18.90;75.70
1021;DHT22;499;42.648;23.270;2022-07-01T03:22:34;19.00;74.60
1021;DHT22;499;42.648;23.270;2022-07-01T03:25:02;19.30;71.80
1021;DHT22;499;42.648;23.270;2022-07-01T03:27:30;19.60;68.50
1021;DHT22;499;42.648;23.270;2022-07-01T03:29:57;20.10;63.30
1021;DHT22;499;42.648;23.270;2022-07-01T03:32:25;20.50;60.80
1021;DHT22;499;42.648;23.270;2022-07-01T03:34:53;20.90;54.60
1021;DHT22;499;42.648;23.270;2022-07-01T03:37:21;21.40;48.60
1021;DHT22;499;42.648;23.270;2022-07-01T03:39:50;21.80;43.80
1021;DHT22;499;42.648;23.270;2022-07-01T03:42:19;22.10;39.60
1021;DHT22;499;42.648;23.270;2022-07-01T03:44:46;22.30;36.80
1021;DHT22;499;42.648;23.270;2022-07-01T03:47:13;22.20;36.70
1021;DHT22;499;42.648;23.270;2022-07-01T03:49:40;22.00;37.60
1021;DHT22;499;42.648;23.270;2022-07-01T03:52:07;22.00;40.00
1021;DHT22;499;42.648;23.270;2022-07-01T03:54:34;21.90;40.50
1021;DHT22;499;42.648;23.270;2022-07-01T03:57:07;21.90;42.20
1021;DHT22;499;42.648;23.270;2022-07-01T03:59:37;21.90;43.60
1021;DHT22;499;42.648;23.270;2022-07-01T04:02:05;21.90;41.40
1021;DHT22;499;42.648;23.270;2022-07-01T04:04:33;21.90;43.50
1021;DHT22;499;42.648;23.270;2022-07-01T04:07:02;21.80;43.90
1021;DHT22;499;42.648;23.270;2022-07-01T04:09:30;21.70;45.90
1021;DHT22;499;42.648;23.270;2022-07-01T04:11:58;21.70;42.50
1021;DHT22;499;42.648;23.270;2022-07-01T04:14:26;21.70;43.10
1021;DHT22;499;42.648;23.270;2022-07-01T04:16:53;21.80;42.70
1021;DHT22;499;42.648;23.270;2022-07-01T04:19:20;21.90;39.90
1021;DHT22;499;42.648;23.270;2022-07-01T04:21:48;22.00;39.00
1021;DHT22;499;42.648;23.270;2022-07-01T04:24:32;22.10;40.40
1021;DHT22;499;42.648;23.270;2022-07-01T04:26:59;21.90;39.80
1021;DHT22;499;42.648;23.270;2022-07-01T04:29:28;21.80;41.20
1021;DHT22;499;42.648;23.270;2022-07-01T04:31:56;21.70;39.80
1021;DHT22;499;42.648;23.270;2022-07-01T04:34:24;21.60;40.00
1021;DHT22;499;42.648;23.270;2022-07-01T04:36:51;21.60;40.20
1021;DHT22;499;42.648;23.270;2022-07-01T04:39:18;21.70;39.40
1021;DHT22;499;42.648;23.270;2022-07-01T04:41:45;21.70;39.50
1021;DHT22;499;42.648;23.270;2022-07-01T04:44:30;21.60;40.00
1021;DHT22;499;42.648;23.270;2022-07-01T04:46:58;21.60;39.90
1021;DHT22;499;42.648;23.270;2022-07-01T04:49:26;21.60;40.30
1021;DHT22;499;42.648;23.270;2022-07-01T04:51:53;21.40;39.70
1021;DHT22;499;42.648;23.270;2022-07-01T04:54:20;21.30;42.60
1021;DHT22;499;42.648;23.270;2022-07-01T04:56:47;21.40;45.70
1021;DHT22;499;42.648;23.270;2022-07-01T04:59:15;21.70;45.90
1021;DHT22;499;42.648;23.270;2022-07-01T05:01:44;22.00;45.10
1021;DHT22;499;42.648;23.270;2022-07-01T05:04:12;22.20;40.20
1021;DHT22;499;42.648;23.270;2022-07-01T05:06:40;22.30;40.80
1021;DHT22;499;42.648;23.270;2022-07-01T05:09:07;22.30;41.30
1021;DHT22;499;42.648;23.270;2022-07-01T05:11:34;22.40;41.60
1021;DHT22;499;42.648;23.270;2022-07-01T05:14:01;22.50;39.10
1021;DHT22;499;42.648;23.270;2022-07-01T05:16:28;22.60;37.00
1021;DHT22;499;42.648;23.270;2022-07-01T05:18:57;22.60;36.60
1021;DHT22;499;42.648;23.270;2022-07-01T05:21:41;22.60;33.60
1021;DHT22;499;42.648;23.270;2022-07-01T05:24:27;22.50;34.30
1021;DHT22;499;42.648;23.270;2022-07-01T05:26:59;22.50;34.80
1021;DHT22;499;42.648;23.270;2022-07-01T05:29:27;22.50;35.20
1021;DHT22;499;42.648;23.270;2022-07-01T05:31:54;22.40;35.90
1021;DHT22;499;42.648;23.270;2022-07-01T05:34:23;22.50;35.50
1021;DHT22;499;42.648;23.270;2022-07-01T05:36:50;22.60;34.40
1021;DHT22;499;42.648;23.270;2022-07-01T05:39:17;22.60;35.40
1021;DHT22;499;42.648;23.270;2022-07-01T05:41:44;22.60;35.80
1021;DHT22;499;42.648;23.270;2022-07-01T05:44:12;22.70;35.20
1021;DHT22;499;42.648;23.270;2022-07-01T05:46:39;22.60;34.60
1021;DHT22;499;42.648;23.270;2022-07-01T05:49:06;22.60;35.40
1021;DHT22;499;42.648;23.270;2022-07-01T05:51:35;22.60;37.00
1021;DHT22;499;42.648;23.270;2022-07-01T05:54:02;22.80;38.40
1021;DHT22;499;42.648;23.270;2022-07-01T05:56:29;23.00;35.40
1021;DHT22;499;42.648;23.270;2022-07-01T05:58:57;23.10;34.50
1021;DHT22;499;42.648;23.270;2022-07-01T06:01:24;23.10;34.70
1021;DHT22;499;42.648;23.270;2022-07-01T06:03:51;23.20;34.60
1021;DHT22;499;42.648;23.270;2022-07-01T06:06:18;23.30;33.90
1021;DHT22;499;42.648;23.270;2022-07-01T06:08:47;23.40;33.20
1021;DHT22;499;42.648;23.270;2022-07-01T06:11:14;23.60;34.00
1021;DHT22;499;42.648;23.270;2022-07-01T06:13:41;23.70;31.30
1021;DHT22;499;42.648;23.270;2022-07-01T06:16:09;23.80;31.90
1021;DHT22;499;42.648;23.270;2022-07-01T06:18:36;24.00;31.40
1021;DHT22;499;42.648;23.270;2022-07-01T06:21:03;24.00;30.20
1021;DHT22;499;42.648;23.270;2022-07-01T06:23:30;24.10;28.80
1021;DHT22;499;42.648;23.270;2022-07-01T06:25:58;23.90;30.20
1021;DHT22;499;42.648;23.270;2022-07-01T06:28:26;23.90;30.00
1021;DHT22;499;42.648;23.270;2022-07-01T06:30:56;23.80;30.10
1021;DHT22;499;42.648;23.270;2022-07-01T06:33:23;23.70;30.90
1021;DHT22;499;42.648;23.270;2022-07-01T06:35:51;23.70;31.40
1021;DHT22;499;42.648;23.270;2022-07-01T06:38:18;23.70;30.00
1021;DHT22;499;42.648;23.270;2022-07-01T06:40:45;23.60;31.70
1021;DHT22;499;42.648;23.270;2022-07-01T06:43:34;23.70;31.10
1021;DHT22;499;42.648;23.270;2022-07-01T06:46:02;23.70;31.70
1021;DHT22;499;42.648;23.270;2022-07-01T06:48:29;23.70;30.40
1021;DHT22;499;42.648;23.270;2022-07-01T06:50:56;23.90;33.20
1021;DHT22;499;42.648;23.270;2022-07-01T06:53:23;24.10;32.80
1021;DHT22;499;42.648;23.270;2022-07-01T06:55:50;24.10;30.00
1021;DHT22;499;42.648;23.270;2022-07-01T06:58:17;24.20;29.30
1021;DHT22;499;42.648;23.270;2022-07-01T07:00:46;24.30;29.00
1021;DHT22;499;42.648;23.270;2022-07-01T07:03:13;24.40;29.40
1021;DHT22;499;42.648;23.270;2022-07-01T07:05:40;24.60;29.20
1021;DHT22;499;42.648;23.270;2022-07-01T07:08:07;24.60;26.80
1021;DHT22;499;42.648;23.270;2022-07-01T07:10:34;24.70;27.50
1021;DHT22;499;42.648;23.270;2022-07-01T07:13:02;24.80;27.30
1021;DHT22;499;42.648;23.270;2022-07-01T07:15:29;25.00;28.20
1021;DHT22;499;42.648;23.270;2022-07-01T07:17:57;25.20;28.00
1021;DHT22;499;42.648;23.270;2022-07-01T07:20:25;25.30;25.70
1021;DHT22;499;42.648;23.270;2022-07-01T07:22:52;25.40;26.20
1021;DHT22;499;42.648;23.270;2022-07-01T07:25:19;25.50;25.10
1021;DHT22;499;42.648;23.270;2022-07-01T07:27:46;25.30;24.90
1021;DHT22;499;42.648;23.270;2022-07-01T07:30:14;25.30;26.20
1021;DHT22;499;42.648;23.270;2022-07-01T07:32:41;25.30;24.20
1021;DHT22;499;42.648;23.270;2022-07-01T07:35:10;25.30;24.50
1021;DHT22;499;42.648;23.270;2022-07-01T07:37:37;25.20;24.10
1021;DHT22;499;42.648;23.270;2022-07-01T07:40:06;25.30;24.90
1021;DHT22;499;42.648;23.270;2022-07-01T07:42:36;25.40;24.40
1021;DHT22;499;42.648;23.270;2022-07-01T07:45:04;25.60;26.40
1021;DHT22;499;42.648;23.270;2022-07-01T07:47:32;25.70;23.90
1021;DHT22;499;42.648;23.270;2022-07-01T07:49:59;25.80;24.40
1021;DHT22;499;42.648;23.270;2022-07-01T07:52:28;25.90;24.20
1021;DHT22;499;42.648;23.270;2022-07-01T07:54:55;26.10;24.20
1021;DHT22;499;42.648;23.270;2022-07-01T07:57:22;26.20;22.10
1021;DHT22;499;42.648;23.270;2022-07-01T07:59:49;26.10;22.10
1021;DHT22;499;42.648;23.270;2022-07-01T08:02:16;26.10;23.00
1021;DHT22;499;42.648;23.270;2022-07-01T08:04:43;26.00;22.00
1021;DHT22;499;42.648;23.270;2022-07-01T08:07:10;26.10;23.30
1021;DHT22;499;42.648;23.270;2022-07-01T08:09:39;26.30;24.80
1021;DHT22;499;42.648;23.270;2022-07-01T08:12:12;26.30;22.20
1021;DHT22;499;42.648;23.270;2022-07-01T08:14:39;26.30;22.20
1021;DHT22;499;42.648;23.270;2022-07-01T08:17:06;26.10;22.10
1021;DHT22;499;42.648;23.270;2022-07-01T08:19:33;26.30;23.70
1021;DHT22;499;42.648;23.270;2022-07-01T08:22:00;26.40;23.40
1021;DHT22;499;42.648;23.270;2022-07-01T08:24:27;26.50;22.30
1021;DHT22;499;42.648;23.270;2022-07-01T08:26:56;26.40;21.20
1021;DHT22;499;42.648;23.270;2022-07-01T08:29:23;26.30;21.40
1021;DHT22;499;42.648;23.270;2022-07-01T08:31:50;26.40;20.30
1021;DHT22;499;42.648;23.270;2022-07-01T08:34:17;26.40;20.50
1021;DHT22;499;42.648;23.270;2022-07-01T08:36:44;26.50;19.90
1021;DHT22;499;42.648;23.270;2022-07-01T08:39:11;26.60;20.20
1021;DHT22;499;42.648;23.270;2022-07-01T08:41:40;26.70;19.20
1021;DHT22;499;42.648;23.270;2022-07-01T08:44:09;26.80;20.60
1021;DHT22;499;42.648;23.270;2022-07-01T08:46:36;27.00;20.30
1021;DHT22;499;42.648;23.270;2022-07-01T08:49:03;27.20;20.30
1021;DHT22;499;42.648;23.270;2022-07-01T08:51:30;27.20;17.90
1021;DHT22;499;42.648;23.270;2022-07-01T08:53:57;27.30;19.30
1021;DHT22;499;42.648;23.270;2022-07-01T08:56:24;27.30;20.00
1021;DHT22;499;42.648;23.270;2022-07-01T08:59:13;27.40;18.70
1021;DHT22;499;42.648;23.270;2022-07-01T09:01:55;27.50;19.60
1021;DHT22;499;42.648;23.270;2022-07-01T09:04:22;27.50;18.80
1021;DHT22;499;42.648;23.270;2022-07-01T09:06:49;27.50;17.30
1021;DHT22;499;42.648;23.270;2022-07-01T09:09:18;27.50;17.80
1021;DHT22;499;42.648;23.270;2022-07-01T09:11:47;27.60;17.80
1021;DHT22;499;42.648;23.270;2022-07-01T09:14:21;27.70;18.20
1021;DHT22;499;42.648;23.270;2022-07-01T09:16:50;28.00;17.20
1021;DHT22;499;42.648;23.270;2022-07-01T09:19:19;28.20;18.10
1021;DHT22;499;42.648;23.270;2022-07-01T09:21:50;28.30;16.80
1021;DHT22;499;42.648;23.270;2022-07-01T09:24:26;28.40;16.50
1021;DHT22;499;42.648;23.270;2022-07-01T09:26:59;28.40;14.40
1021;DHT22;499;42.648;23.270;2022-07-01T09:29:32;28.20;15.00
1021;DHT22;499;42.648;23.270;2022-07-01T09:31:59;28.10;14.90
1021;DHT22;499;42.648;23.270;2022-07-01T09:34:27;28.00;16.00
1021;DHT22;499;42.648;23.270;2022-07-01T09:36:58;28.00;16.70
1021;DHT22;499;42.648;23.270;2022-07-01T09:39:25;28.20;16.50
1021;DHT22;499;42.648;23.270;2022-07-01T09:41:54;28.30;16.30
1021;DHT22;499;42.648;23.270;2022-07-01T09:44:21;28.40;16.50
1021;DHT22;499;42.648;23.270;2022-07-01T09:46:54;28.50;14.40
1021;DHT22;499;42.648;23.270;2022-07-01T09:49:22;28.50;13.40
1021;DHT22;499;42.648;23.270;2022-07-01T09:51:49;28.40;11.80
1021;DHT22;499;42.648;23.270;2022-07-01T09:54:17;28.40;12.90
1021;DHT22;499;42.648;23.270;2022-07-01T09:56:44;28.40;12.50
1021;DHT22;499;42.648;23.270;2022-07-01T09:59:12;28.50;13.70
1021;DHT22;499;42.648;23.270;2022-07-01T10:01:39;28.60;13.00
1021;DHT22;499;42.648;23.270;2022-07-01T10:04:09;28.70;13.60
1021;DHT22;499;42.648;23.270;2022-07-01T10:06:51;28.90;11.20
1021;DHT22;499;42.648;23.270;2022-07-01T10:09:56;28.90;10.90
1021;DHT22;499;42.648;23.270;2022-07-01T10:12:38;28.90;11.10
1021;DHT22;499;42.648;23.270;2022-07-01T10:15:08;28.80;11.50
1021;DHT22;499;42.648;23.270;2022-07-01T10:17:37;28.90;11.50
1021;DHT22;499;42.648;23.270;2022-07-01T10:20:11;29.00;11.20
1021;DHT22;499;42.648;23.270;2022-07-01T10:22:39;29.20;9.20
1021;DHT22;499;42.648;23.270;2022-07-01T10:28:21;29.30;7.10
1021;DHT22;499;42.648;23.270;2022-07-01T10:30:50;29.30;9.10
1021;DHT22;499;42.648;23.270;2022-07-01T10:33:32;29.30;5.50
1021;DHT22;499;42.648;23.270;2022-07-01T10:36:09;29.50;7.70
1021;DHT22;499;42.648;23.270;2022-07-01T10:39:11;29.60;6.10
1021;DHT22;499;42.648;23.270;2022-07-01T10:41:42;29.60;3.90
1021;DHT22;499;42.648;23.270;2022-07-01T10:44:22;29.80;5.10
1021;DHT22;499;42.648;23.270;2022-07-01T10:46:51;29.80;2.20
1021;DHT22;499;42.648;23.270;2022-07-01T10:49:59;29.90;2.80
1021;DHT22;499;42.648;23.270;2022-07-01T10:52:27;30.00;1.00
1021;DHT22;499;42.648;23.270;2022-07-01T10:54:56;30.00;1.00
1021;DHT22;499;42.648;23.270;2022-07-01T10:57:28;29.90;1.70
1021;DHT22;499;42.648;23.270;2022-07-01T10:59:57;29.90;1.00
1021;DHT22;499;42.648;23.270;2022-07-01T11:02:45;29.90;1.00
1021;DHT22;499;42.648;23.270;2022-07-01T11:05:13;29.80;1.00
1021;DHT22;499;42.648;23.270;2022-07-01T11:07:43;29.80;1.80
1021;DHT22;499;42.648;23.270;2022-07-01T11:10:13;29.90;1.00
1021;DHT22;499;42.648;23.270;2022-07-01T11:12:42;30.00;1.00
1021;DHT22;499;42.648;23.270;2022-07-01T11:15:12;30.10;1.00
1021;DHT22;499;42.648;23.270;2022-07-01T11:17:42;30.20;1.00
1021;DHT22;499;42.648;23.270;2022-07-01T11:20:10;30.30;1.00
1021;DHT22;499;42.648;23.270;2022-07-01T11:22:37;30.40;1.00
1021;DHT22;499;42.648;23.270;2022-07-01T11:25:08;30.40;1.00
1021;DHT22;499;42.648;23.270;2022-07-01T11:27:36;30.40;1.00
1021;DHT22;499;42.648;23.270;2022-07-01T11:30:05;30.40;1.00
1021;DHT22;499;42.648;23.270;2022-07-01T11:32:36;30.40;1.00
1021;DHT22;499;42.648;23.270;2022-07-01T11:35:05;30.50;1.00
1021;DHT22;499;42.648;23.270;2022-07-01T11:38:04;30.60;1.00
1021;DHT22;499;42.648;23.270;2022-07-01T11:40:51;30.70;1.00
1021;DHT22;499;42.648;23.270;2022-07-01T11:43:23;30.80;1.00
1021;DHT22;499;42.648;23.270;2022-07-01T11:45:51;30.80;1.00
1021;DHT22;499;42.648;23.270;2022-07-01T11:48:33;30.70;1.00
1021;DHT22;499;42.648;23.270;2022-07-01T11:51:05;30.70;1.00
1021;DHT22;499;42.648;23.270;2022-07-01T11:53:32;30.50;1.10
1021;DHT22;499;42.648;23.270;2022-07-01T11:56:00;30.60;1.80
1021;DHT22;499;42.648;23.270;2022-07-01T11:58:41;30.70;2.00
1021;DHT22;499;42.648;23.270;2022-07-01T12:01:08;30.60;1.20
1021;DHT22;499;42.648;23.270;2022-07-01T12:03:36;30.90;2.50
1021;DHT22;499;42.648;23.270;2022-07-01T12:06:04;31.00;1.30
1021;DHT22;499;42.648;23.270;2022-07-01T12:08:32;31.20;2.10
1021;DHT22;499;42.648;23.270;2022-07-01T12:11:00;31.30;1.00
1021;DHT22;499;42.648;23.270;2022-07-01T12:13:28;31.60;1.00
1021;DHT22;499;42.648;23.270;2022-07-01T12:16:05;31.70;1.00
1021;DHT22;499;42.648;23.270;2022-07-01T12:18:33;31.70;1.00
1021;DHT22;499;42.648;23.270;2022-07-01T12:21:00;31.80;1.00
1021;DHT22;499;42.648;23.270;2022-07-01T12:23:27;32.00;1.00
1021;DHT22;499;42.648;23.270;2022-07-01T12:25:54;31.90;1.00
1021;DHT22;499;42.648;23.270;2022-07-01T12:28:31;32.10;1.00
1021;DHT22;499;42.648;23.270;2022-07-01T12:31:03;32.20;1.00
1021;DHT22;499;42.648;23.270;2022-07-01T12:33:33;32.10;1.00
1021;DHT22;499;42.648;23.270;2022-07-01T12:36:02;32.10;1.00
1021;DHT22;499;42.648;23.270;2022-07-01T12:38:29;32.00;1.00
1021;DHT22;499;42.648;23.270;2022-07-01T12:40:56;31.90;1.00
1021;DHT22;499;42.648;23.270;2022-07-01T12:43:25;32.00;1.00
1021;DHT22;499;42.648;23.270;2022-07-01T12:45:57;31.90;1.00
1021;DHT22;499;42.648;23.270;2022-07-01T12:48:24;31.70;1.00
1021;DHT22;499;42.648;23.270;2022-07-01T12:50:55;31.70;1.00
1021;DHT22;499;42.648;23.270;2022-07-01T12:53:24;31.70;1.00
1021;DHT22;499;42.648;23.270;2022-07-01T12:55:53;31.60;1.00
1021;DHT22;499;42.648;23.270;2022-07-01T12:58:22;31.70;1.00
1021;DHT22;499;42.648;23.270;2022-07-01T13:00:51;31.90;1.00
1021;DHT22;499;42.648;23.270;2022-07-01T13:03:22;31.80;1.00
1021;DHT22;499;42.648;23.270;2022-07-01T13:05:50;32.10;1.00
1021;DHT22;499;42.648;23.270;2022-07-01T13:08:18;32.50;1.00
1021;DHT22;499;42.648;23.270;2022-07-01T13:10:46;32.60;1.00
1021;DHT22;499;42.648;23.270;2022-07-01T13:13:14;32.30;1.00
1021;DHT22;499;42.648;23.270;2022-07-01T13:15:43;32.50;1.00
1021;DHT22;499;42.648;23.270;2022-07-01T13:18:10;32.50;1.00
1021;DHT22;499;42.648;23.270;2022-07-01T13:20:41;32.80;1.00
1021;DHT22;499;42.648;23.270;2022-07-01T13:23:08;32.80;1.00
1021;DHT22;499;42.648;23.270;2022-07-01T13:25:35;33.00;1.00
1021;DHT22;499;42.648;23.270;2022-07-01T13:28:03;32.90;2.20
1021;DHT22;499;42.648;23.270;2022-07-01T13:30:31;32.60;2.90
1021;DHT22;499;42.648;23.270;2022-07-01T13:32:58;32.50;2.40
1021;DHT22;499;42.648;23.270;2022-07-01T13:35:25;32.20;2.20
1021;DHT22;499;42.648;23.270;2022-07-01T13:37:54;32.10;5.10
1021;DHT22;499;42.648;23.270;2022-07-01T13:40:21;31.90;4.60
1021;DHT22;499;42.648;23.270;2022-07-01T13:42:49;32.00;5.30
1021;DHT22;499;42.648;23.270;2022-07-01T13:45:16;32.10;4.20
1021;DHT22;499;42.648;23.270;2022-07-01T13:47:43;32.20;4.20
1021;DHT22;499;42.648;23.270;2022-07-01T13:50:10;31.70;6.00
1021;DHT22;499;42.648;23.270;2022-07-01T13:52:38;31.70;7.60
1021;DHT22;499;42.648;23.270;2022-07-01T13:55:07;31.70;5.50
1021;DHT22;499;42.648;23.270;2022-07-01T13:57:34;31.80;6.80
1021;DHT22;499;42.648;23.270;2022-07-01T14:00:02;31.60;5.40
1021;DHT22;499;42.648;23.270;2022-07-01T14:02:29;31.80;5.60
1021;DHT22;499;42.648;23.270;2022-07-01T14:04:57;31.40;6.10
1021;DHT22;499;42.648;23.270;2022-07-01T14:07:24;31.30;8.10
1021;DHT22;499;42.648;23.270;2022-07-01T14:09:52;31.40;8.20
1021;DHT22;499;42.648;23.270;2022-07-01T14:12:20;31.30;8.10
1021;DHT22;499;42.648;23.270;2022-07-01T14:14:47;31.40;8.20
1021;DHT22;499;42.648;23.270;2022-07-01T14:17:15;31.40;8.20
1021;DHT22;499;42.648;23.270;2022-07-01T14:19:43;31.40;8.20
1021;DHT22;499;42.648;23.270;2022-07-01T14:22:10;31.40;8.20
1021;DHT22;499;42.648;23.270;2022-07-01T14:24:37;31.20;8.10
1021;DHT22;499;42.648;23.270;2022-07-01T14:27:05;31.10;8.00
1021;DHT22;499;42.648;23.270;2022-07-01T14:29:33;31.10;8.40
1021;DHT22;499;42.648;23.270;2022-07-01T14:32:01;31.00;9.10
1021;DHT22;499;42.648;23.270;2022-07-01T14:34:28;31.10;8.10
1021;DHT22;499;42.648;23.270;2022-07-01T14:36:55;31.20;8.70
1021;DHT22;499;42.648;23.270;2022-07-01T14:39:22;31.30;9.00
1021;DHT22;499;42.648;23.270;2022-07-01T14:41:49;31.40;9.90
1021;DHT22;499;42.648;23.270;2022-07-01T14:44:17;31.50;8.40
1021;DHT22;499;42.648;23.270;2022-07-01T14:46:45;31.70;8.40
1021;DHT22;499;42.648;23.270;2022-07-01T14:49:12;31.70;8.30
1021;DHT22;499;42.648;23.270;2022-07-01T14:51:41;31.60;8.30
1021;DHT22;499;42.648;23.270;2022-07-01T14:54:08;31.70;8.30
1021;DHT22;499;42.648;23.270;2022-07-01T14:56:35;31.70;8.30
1021;DHT22;499;42.648;23.270;2022-07-01T14:59:02;31.70;9.40
1021;DHT22;499;42.648;23.270;2022-07-01T15:01:29;31.90;9.00
1021;DHT22;499;42.648;23.270;2022-07-01T15:03:58;31.80;7.70
1021;DHT22;499;42.648;23.270;2022-07-01T15:06:25;32.10;8.50
1021;DHT22;499;42.648;23.270;2022-07-01T15:08:52;32.30;8.00
1021;DHT22;499;42.648;23.270;2022-07-01T15:11:19;32.60;7.10
1021;DHT22;499;42.648;23.270;2022-07-01T15:13:46;32.90;7.50
1021;DHT22;499;42.648;23.270;2022-07-01T15:16:13;33.60;6.10
1021;DHT22;499;42.648;23.270;2022-07-01T15:18:41;34.30;4.80
1021;DHT22;499;42.648;23.270;2022-07-01T15:21:09;34.70;4.00
1021;DHT22;499;42.648;23.270;2022-07-01T15:23:36;35.40;2.80
1021;DHT22;499;42.648;23.270;2022-07-01T15:26:03;36.10;2.20
1021;DHT22;499;42.648;23.270;2022-07-01T15:28:30;36.80;2.20
1021;DHT22;499;42.648;23.270;2022-07-01T15:30:57;37.50;1.00
1021;DHT22;499;42.648;23.270;2022-07-01T15:33:24;37.20;1.00
1021;DHT22;499;42.648;23.270;2022-07-01T15:35:51;37.30;1.00
1021;DHT22;499;42.648;23.270;2022-07-01T15:38:20;37.50;1.00
1021;DHT22;499;42.648;23.270;2022-07-01T15:40:47;37.30;1.00
1021;DHT22;499;42.648;23.270;2022-07-01T15:43:14;37.40;1.00
1021;DHT22;499;42.648;23.270;2022-07-01T15:45:42;37.40;1.00
1021;DHT22;499;42.648;23.270;2022-07-01T15:48:09;37.60;1.00
1021;DHT22;499;42.648;23.270;2022-07-01T15:50:38;37.90;1.00
1021;DHT22;499;42.648;23.270;2022-07-01T15:53:06;38.10;1.00
1021;DHT22;499;42.648;23.270;2022-07-01T15:55:36;38.70;1.00
1021;DHT22;499;42.648;23.270;2022-07-01T15:58:05;38.90;1.00
1021;DHT22;499;42.648;23.270;2022-07-01T16:00:32;39.20;1.00
1021;DHT22;499;42.648;23.270;2022-07-01T16:02:59;39.40;1.00
1021;DHT22;499;42.648;23.270;2022-07-01T16:05:27;40.00;1.00
1021;DHT22;499;42.648;23.270;2022-07-01T16:07:57;40.00;1.00
1021;DHT22;499;42.648;23.270;2022-07-01T16:10:31;39.90;1.00
1021;DHT22;499;42.648;23.270;2022-07-01T16:13:02;39.80;1.00
1021;DHT22;499;42.648;23.270;2022-07-01T16:15:34;39.40;1.00
1021;DHT22;499;42.648;23.270;2022-07-01T16:18:07;39.80;1.00
1021;DHT22;499;42.648;23.270;2022-07-01T16:20:38;39.90;1.00